Terminal Aerodrome Forecast
Issued by NWS Pittsburgh, PA

Current Version | Previous Version | Graphics & Text | Print | Product List | Glossary On
Versions: 1 2 3 4 5 6 7 8 9 10 11 12 13 14 15 16 17 18 19 20 21 22 23 24 25 26 27
000
FTUS41 KPBZ 240500
TAFPIT
TAF
KPIT 240538Z 2406/2512 13014KT 6SM -RA BR BKN080 OVC100
      TEMPO 2406/2408 16012G20KT P6SM NSW SCT035
     FM240800 19013KT P6SM -SHRA OVC012
     FM241500 19013G29KT P6SM BKN050
     FM241600 20020G45KT P6SM BKN050
     FM242100 23014G30KT P6SM BKN050=

USA.gov is the U.S. government's official web portal to all federal, state and local government web resources and services.